Time;durP1;ratioP1;P1;durP2;ratioP2;P2;SDS_P1;SDS_P2;PMS_P1;PMS_P2;Temp;Humidity;BMP_temperature;BMP_pressure;BME280_temperature;BME280_humidity;BME280_pressure;Samples;Min_cycle;Max_cycle;Signal;HPM_P1;HPM_P2
2022/12/02 00:02:20;;;;;;;14.67;13.60;;;20.50;61.90;;;;;;5031436;28;20476;-52
2022/12/02 00:04:53;;;;;;;14.57;13.47;;;20.50;61.80;;;;;;5031529;28;20535;-51
2022/12/02 00:07:21;;;;;;;15.37;14.20;;;20.50;61.80;;;;;;5031388;28;20484;-52
2022/12/02 00:09:48;;;;;;;15.57;14.27;;;20.50;61.90;;;;;;5031166;28;21047;-56
2022/12/02 00:12:21;;;;;;;14.00;13.00;;;20.50;61.80;;;;;;5031762;28;20926;-54
2022/12/02 00:14:56;;;;;;;14.07;13.07;;;20.50;61.80;;;;;;5031504;28;20554;-57
2022/12/02 00:17:23;;;;;;;14.00;13.03;;;20.50;61.80;;;;;;5031416;28;20441;-53
2022/12/02 00:19:50;;;;;;;14.03;13.03;;;20.50;61.80;;;;;;5031208;28;20488;-53
2022/12/02 00:22:17;;;;;;;13.70;12.60;;;20.50;61.70;;;;;;5031555;28;20857;-52
2022/12/02 00:24:44;;;;;;;17.33;15.93;;;20.50;61.90;;;;;;5031459;28;20447;-54
2022/12/02 00:27:11;;;;;;;13.57;12.70;;;20.50;61.70;;;;;;5031640;28;20869;-53
2022/12/02 00:29:39;;;;;;;13.10;12.10;;;20.50;61.70;;;;;;5033499;28;20564;-56
2022/12/02 00:32:07;;;;;;;12.77;11.90;;;20.50;61.70;;;;;;5035160;28;20853;-55
2022/12/02 00:34:34;;;;;;;14.13;13.03;;;20.50;61.70;;;;;;5034532;28;20531;-51
2022/12/02 00:37:00;;;;;;;14.40;13.40;;;20.50;61.70;;;;;;5035278;28;20451;-54
2022/12/02 00:39:27;;;;;;;13.90;12.90;;;20.50;61.70;;;;;;5034619;28;20508;-51
2022/12/02 00:41:54;;;;;;;13.17;12.17;;;20.50;61.70;;;;;;5034871;28;20480;-55
2022/12/02 00:47:07;;;;;;;14.47;13.37;;;20.50;61.60;;;;;;5035197;28;20432;-51
2022/12/02 00:49:34;;;;;;;12.80;11.80;;;20.50;61.60;;;;;;5034186;28;20465;-55
2022/12/02 00:52:00;;;;;;;12.33;11.47;;;20.50;61.60;;;;;;5034841;28;20537;-50
2022/12/02 00:54:27;;;;;;;13.87;12.87;;;20.50;61.60;;;;;;5034686;28;21023;-51
2022/12/02 00:56:54;;;;;;;12.70;11.77;;;20.50;61.50;;;;;;5034692;28;20440;-51
2022/12/02 00:59:21;;;;;;;13.03;12.03;;;20.50;61.50;;;;;;5034230;28;21062;-54
2022/12/02 01:01:48;;;;;;;13.73;12.80;;;20.50;61.50;;;;;;5034562;28;20572;-52
2022/12/02 01:04:17;;;;;;;12.60;11.80;;;20.50;61.50;;;;;;5034674;28;20532;-52
2022/12/02 01:06:44;;;;;;;12.53;11.70;;;20.50;61.40;;;;;;5034688;28;20522;-50
2022/12/02 01:09:10;;;;;;;12.10;11.30;;;20.50;61.40;;;;;;5034250;28;20547;-52
2022/12/02 01:11:37;;;;;;;13.13;12.13;;;20.50;61.40;;;;;;5034600;28;20962;-53
2022/12/02 01:14:04;;;;;;;12.30;11.40;;;20.50;61.30;;;;;;5034387;28;20928;-54
2022/12/02 01:16:31;;;;;;;12.10;11.30;;;20.50;61.30;;;;;;5034572;28;20451;-56
2022/12/02 01:18:58;;;;;;;13.67;12.57;;;20.50;61.40;;;;;;5033925;28;20479;-55
2022/12/02 01:21:26;;;;;;;13.07;12.13;;;20.50;61.40;;;;;;5034315;28;21018;-50
2022/12/02 01:23:53;;;;;;;12.23;11.43;;;20.50;61.30;;;;;;5034234;28;20971;-51
2022/12/02 01:26:20;;;;;;;12.27;11.40;;;20.50;61.30;;;;;;5034176;28;20451;-52
2022/12/02 01:28:47;;;;;;;12.93;11.93;;;20.50;61.30;;;;;;5033615;28;20465;-53
2022/12/02 01:31:14;;;;;;;12.80;11.80;;;20.50;61.30;;;;;;5034083;28;21012;-55
2022/12/02 01:33:41;;;;;;;12.40;11.50;;;20.50;61.20;;;;;;5033977;28;20441;-54
2022/12/02 01:36:09;;;;;;;12.70;11.90;;;20.50;61.20;;;;;;5034022;28;20453;-55
2022/12/02 01:38:37;;;;;;;13.20;12.20;;;20.50;61.10;;;;;;5059569;23;20583;-50
2022/12/02 01:41:04;;;;;;;10.60;9.90;;;20.50;61.10;;;;;;5045078;28;20559;-51
2022/12/02 01:43:31;;;;;;;11.97;11.07;;;20.50;61.10;;;;;;5053738;28;20817;-53
2022/12/02 01:45:59;;;;;;;12.60;11.70;;;20.50;61.10;;;;;;5053737;28;20487;-50
2022/12/02 01:48:26;;;;;;;12.87;11.97;;;20.50;61.10;;;;;;5041975;28;20556;-52
2022/12/02 01:50:53;;;;;;;12.77;11.80;;;20.50;61.00;;;;;;5033648;28;20533;-51
2022/12/02 01:53:20;;;;;;;12.80;11.80;;;20.50;61.00;;;;;;5033707;28;20882;-53
2022/12/02 01:55:48;;;;;;;11.30;10.60;;;20.50;61.00;;;;;;5033713;28;20536;-52
2022/12/02 01:58:17;;;;;;;12.70;11.87;;;20.50;61.00;;;;;;5033164;28;20508;-50
2022/12/02 02:00:43;;;;;;;12.93;11.80;;;20.50;60.90;;;;;;5033285;28;20560;-50
2022/12/02 02:03:10;;;;;;;11.33;10.47;;;20.50;60.90;;;;;;5033520;28;20888;-51
2022/12/02 02:05:37;;;;;;;12.63;11.83;;;20.50;61.60;;;;;;5033448;28;20536;-51
2022/12/02 02:08:06;;;;;;;12.67;11.67;;;20.50;60.90;;;;;;5033127;28;20503;-51
2022/12/02 02:10:34;;;;;;;10.87;10.10;;;20.50;60.80;;;;;;5033241;28;20447;-53
2022/12/02 02:13:03;;;;;;;12.43;11.43;;;20.50;60.80;;;;;;5033438;28;20441;-51
2022/12/02 02:15:30;;;;;;;12.53;11.53;;;20.50;60.80;;;;;;5033170;28;20536;-51
2022/12/02 02:17:58;;;;;;;13.50;12.40;;;20.50;60.80;;;;;;5033502;28;20891;-54
2022/12/02 02:20:26;;;;;;;14.03;12.87;;;20.50;60.80;;;;;;5033366;28;20532;-52
2022/12/02 02:23:01;;;;;;;12.60;11.70;;;20.50;60.80;;;;;;5033760;28;20895;-54
2022/12/02 02:25:29;;;;;;;11.80;10.90;;;20.50;60.80;;;;;;5033483;28;20448;-55
2022/12/02 02:27:58;;;;;;;11.47;10.53;;;20.50;60.80;;;;;;5033395;28;21069;-53
2022/12/02 02:30:28;;;;;;;12.83;11.93;;;20.50;60.80;;;;;;5033279;28;20445;-55
2022/12/02 02:32:55;;;;;;;12.27;11.47;;;20.50;60.70;;;;;;5033538;28;20480;-54
2022/12/02 02:35:23;;;;;;;10.70;10.00;;;20.50;60.70;;;;;;5033279;28;20871;-51
2022/12/02 02:37:52;;;;;;;11.93;11.13;;;20.50;60.70;;;;;;5032387;28;20474;-53
2022/12/02 02:40:20;;;;;;;11.53;10.70;;;20.50;60.70;;;;;;5032205;28;20445;-50
2022/12/02 02:42:52;;;;;;;10.20;9.57;;;20.50;60.80;;;;;;5032610;28;20477;-51
2022/12/02 02:45:20;;;;;;;12.00;11.30;;;20.50;60.80;;;;;;5032720;28;20445;-49
2022/12/02 02:47:47;;;;;;;11.27;10.47;;;20.50;60.80;;;;;;5032137;28;21057;-50
2022/12/02 02:50:15;;;;;;;11.30;10.50;;;20.50;60.80;;;;;;5032321;28;20480;-50
2022/12/02 02:52:42;;;;;;;11.90;10.97;;;20.50;60.80;;;;;;5031967;28;20471;-50
2022/12/02 02:55:14;;;;;;;11.60;10.77;;;20.50;60.80;;;;;;5032483;28;20445;-52
2022/12/02 02:57:41;;;;;;;10.50;9.90;;;20.50;60.80;;;;;;5032130;28;21037;-53
2022/12/02 03:00:11;;;;;;;12.40;11.50;;;20.50;60.70;;;;;;5031958;28;20445;-50
2022/12/02 03:02:38;;;;;;;12.13;11.20;;;20.50;60.70;;;;;;5028973;28;21162;-50
2022/12/02 03:05:06;;;;;;;13.00;12.10;;;20.50;60.80;;;;;;5032262;28;20979;-51
2022/12/02 03:07:34;;;;;;;11.83;11.00;;;20.50;60.80;;;;;;5032046;28;20490;-51
2022/12/02 03:10:01;;;;;;;11.50;10.70;;;20.50;60.80;;;;;;5032081;28;20599;-50
2022/12/02 03:12:28;;;;;;;11.37;10.57;;;20.50;60.70;;;;;;5032193;28;20433;-51
2022/12/02 03:14:55;;;;;;;11.13;10.33;;;20.50;60.70;;;;;;5032065;28;20452;-50
2022/12/02 03:17:23;;;;;;;10.73;10.03;;;20.50;60.70;;;;;;5031805;28;20453;-50
2022/12/02 03:19:50;;;;;;;11.40;10.70;;;20.50;60.70;;;;;;5031849;28;20544;-50
2022/12/02 03:22:17;;;;;;;11.90;10.87;;;20.50;60.70;;;;;;5031956;28;21042;-53
2022/12/02 03:24:44;;;;;;;10.40;9.70;;;20.50;61.00;;;;;;5031748;28;20529;-51
2022/12/02 03:27:12;;;;;;;10.17;9.50;;;20.50;60.70;;;;;;5031967;28;20448;-52
2022/12/02 03:29:40;;;;;;;11.53;10.83;;;20.50;60.70;;;;;;5031613;28;20473;-50
2022/12/02 03:32:09;;;;;;;10.97;10.27;;;20.50;60.70;;;;;;5031827;28;20481;-51
2022/12/02 03:34:39;;;;;;;11.13;10.40;;;20.50;60.60;;;;;;5031734;28;20870;-50
2022/12/02 03:37:06;;;;;;;10.57;9.97;;;20.40;60.50;;;;;;5031873;28;20479;-50
2022/12/02 03:39:33;;;;;;;11.10;10.40;;;20.50;60.60;;;;;;5031479;28;20473;-50
2022/12/02 03:42:00;;;;;;;11.30;10.43;;;20.40;61.00;;;;;;5031724;28;20487;-51
2022/12/02 03:44:27;;;;;;;10.70;9.90;;;20.50;60.60;;;;;;5031486;28;20488;-51
2022/12/02 03:46:54;;;;;;;10.63;9.93;;;20.40;60.50;;;;;;5031715;28;20828;-52
2022/12/02 03:49:21;;;;;;;11.43;10.73;;;20.40;60.50;;;;;;5031392;28;20497;-50
2022/12/02 03:51:49;;;;;;;10.87;10.20;;;20.40;61.30;;;;;;5031614;28;20597;-51
2022/12/02 03:54:17;;;;;;;12.00;11.20;;;20.40;60.40;;;;;;5031402;28;20950;-51
2022/12/02 03:56:43;;;;;;;11.77;11.03;;;20.50;60.50;;;;;;5031587;28;20451;-50
2022/12/02 03:59:18;;;;;;;10.77;10.07;;;20.40;60.40;;;;;;5031330;28;20465;-51
2022/12/02 04:01:44;;;;;;;10.30;9.60;;;20.40;60.50;;;;;;5031251;28;20507;-51
2022/12/02 04:04:11;;;;;;;10.00;9.30;;;20.40;60.50;;;;;;5033340;28;20448;-52
2022/12/02 04:06:38;;;;;;;9.67;9.17;;;20.40;60.40;;;;;;5035613;28;20447;-53
2022/12/02 04:09:06;;;;;;;10.87;10.27;;;20.40;60.40;;;;;;5035287;28;20464;-51
2022/12/02 04:11:33;;;;;;;11.07;10.40;;;20.40;60.40;;;;;;5035507;28;20443;-50
2022/12/02 04:14:00;;;;;;;12.63;11.83;;;20.40;60.40;;;;;;5035225;28;20964;-53
2022/12/02 04:16:27;;;;;;;11.73;10.93;;;20.40;60.40;;;;;;5035396;28;20447;-51
2022/12/02 04:18:54;;;;;;;10.77;10.07;;;20.40;60.40;;;;;;5035198;28;20469;-50
2022/12/02 04:21:23;;;;;;;11.00;10.20;;;20.40;60.40;;;;;;5035057;28;20916;-51
2022/12/02 04:23:51;;;;;;;10.07;9.47;;;20.40;60.40;;;;;;5035354;28;20816;-50
2022/12/02 04:26:20;;;;;;;11.30;10.50;;;20.40;60.50;;;;;;5035332;28;20945;-51
2022/12/02 04:28:47;;;;;;;11.27;10.57;;;20.40;60.50;;;;;;5034878;28;20465;-51
2022/12/02 04:31:13;;;;;;;10.93;10.33;;;20.40;60.40;;;;;;5034916;28;20447;-50
2022/12/02 04:33:40;;;;;;;11.30;10.50;;;20.40;60.50;;;;;;5035045;28;20945;-51
2022/12/02 04:36:07;;;;;;;11.20;10.50;;;20.40;60.50;;;;;;5035023;28;20447;-51
2022/12/02 04:38:34;;;;;;;9.83;9.23;;;20.40;60.50;;;;;;5034874;28;20486;-50
2022/12/02 04:41:01;;;;;;;10.80;10.20;;;20.40;60.60;;;;;;5034545;28;20483;-50
2022/12/02 04:43:29;;;;;;;11.77;10.97;;;20.40;60.50;;;;;;5034852;28;20472;-51
2022/12/02 04:45:56;;;;;;;11.37;10.77;;;20.40;60.50;;;;;;5034934;28;20877;-50
2022/12/02 04:48:23;;;;;;;10.50;9.90;;;20.40;60.50;;;;;;5034736;28;20461;-51
2022/12/02 04:50:50;;;;;;;10.77;10.20;;;20.40;60.50;;;;;;5034379;28;20812;-51
2022/12/02 04:53:16;;;;;;;10.93;10.30;;;20.40;60.50;;;;;;5034842;28;20437;-53
2022/12/02 04:55:45;;;;;;;12.20;11.50;;;20.40;60.50;;;;;;5034686;28;20635;-52
2022/12/02 04:58:12;;;;;;;9.90;9.33;;;20.40;60.50;;;;;;5034588;28;20469;-51
2022/12/02 05:00:40;;;;;;;11.00;10.20;;;20.40;60.50;;;;;;5033991;28;20540;-52
2022/12/02 05:03:07;;;;;;;11.47;10.77;;;20.40;60.50;;;;;;5034575;28;21166;-51
2022/12/02 05:05:34;;;;;;;10.93;10.03;;;20.40;60.50;;;;;;5034534;28;20480;-52
2022/12/02 05:08:01;;;;;;;11.53;10.60;;;20.40;60.40;;;;;;5034401;28;20547;-53
2022/12/02 05:10:28;;;;;;;13.53;12.57;;;20.40;60.40;;;;;;5034086;28;20445;-52
2022/12/02 05:12:54;;;;;;;11.23;10.43;;;20.40;60.50;;;;;;5034436;28;20531;-51
2022/12/02 05:15:21;;;;;;;11.43;10.63;;;20.40;60.40;;;;;;5034016;28;20528;-51
2022/12/02 05:17:49;;;;;;;11.40;10.70;;;20.40;60.40;;;;;;5034178;28;20441;-51
2022/12/02 05:20:16;;;;;;;10.93;10.23;;;20.40;60.40;;;;;;5033914;28;20537;-54
2022/12/02 05:22:43;;;;;;;10.63;9.90;;;20.40;60.40;;;;;;5034240;28;20519;-54
2022/12/02 05:25:10;;;;;;;11.03;10.33;;;20.40;60.40;;;;;;5034172;28;20480;-53
2022/12/02 05:27:37;;;;;;;13.03;12.13;;;20.40;60.40;;;;;;5034105;28;20480;-51
2022/12/02 05:30:05;;;;;;;11.93;11.13;;;20.40;60.30;;;;;;5033813;28;20452;-52
2022/12/02 05:32:31;;;;;;;12.13;11.23;;;20.40;60.20;;;;;;5034065;28;20532;-51
2022/12/02 05:34:59;;;;;;;10.77;10.13;;;20.30;60.20;;;;;;5034170;28;20823;-52
2022/12/02 05:37:26;;;;;;;10.73;10.10;;;20.30;60.10;;;;;;5034043;28;20448;-52
2022/12/02 05:39:53;;;;;;;12.07;11.27;;;20.40;60.20;;;;;;5033398;28;20476;-51
2022/12/02 05:42:20;;;;;;;11.63;10.93;;;20.30;60.30;;;;;;5033791;28;20575;-51
2022/12/02 05:44:47;;;;;;;12.83;12.00;;;20.30;60.10;;;;;;5033751;28;20930;-53
2022/12/02 05:47:15;;;;;;;11.73;10.97;;;20.30;60.10;;;;;;5033793;28;20442;-52
2022/12/02 05:49:43;;;;;;;11.80;11.10;;;20.30;60.10;;;;;;5033187;28;20507;-51
2022/12/02 05:52:22;;;;;;;12.03;11.23;;;20.30;60.10;;;;;;5033665;28;20524;-52
2022/12/02 05:54:51;;;;;;;12.30;11.40;;;20.30;60.10;;;;;;5033750;28;20448;-55
2022/12/02 05:57:21;;;;;;;12.47;11.57;;;20.30;60.10;;;;;;5033583;28;20487;-51
2022/12/02 05:59:48;;;;;;;12.83;12.03;;;20.30;60.10;;;;;;5033069;28;21007;-51
2022/12/02 06:02:24;;;;;;;12.30;11.60;;;20.30;60.20;;;;;;5033305;28;20488;-51
2022/12/02 06:04:51;;;;;;;10.77;10.07;;;20.30;60.30;;;;;;5033482;28;20449;-50
2022/12/02 06:07:20;;;;;;;12.97;12.17;;;20.30;60.40;;;;;;5033444;28;20491;-51
2022/12/02 06:09:46;;;;;;;12.83;11.93;;;20.30;60.50;;;;;;5032944;28;20555;-51
2022/12/02 06:12:16;;;;;;;11.67;10.97;;;20.30;60.60;;;;;;5033188;28;20532;-53
2022/12/02 06:14:48;;;;;;;11.97;10.97;;;20.30;60.70;;;;;;5033042;28;20477;-52
2022/12/02 06:17:16;;;;;;;13.40;12.60;;;20.30;60.90;;;;;;5033340;28;20507;-53
2022/12/02 06:19:45;;;;;;;12.20;11.57;;;20.30;61.00;;;;;;5032640;28;20512;-52
2022/12/02 06:22:17;;;;;;;12.70;11.60;;;20.30;61.10;;;;;;5033020;28;20568;-52
2022/12/02 06:24:46;;;;;;;13.17;12.13;;;20.30;61.20;;;;;;5033199;28;20477;-54
2022/12/02 06:27:15;;;;;;;14.80;13.90;;;20.40;61.40;;;;;;5031990;28;20477;-52
2022/12/02 06:29:47;;;;;;;12.37;11.37;;;20.30;61.50;;;;;;5032535;28;20467;-51
2022/12/02 06:32:19;;;;;;;13.00;11.87;;;20.30;62.00;;;;;;5032934;28;20484;-52
2022/12/02 06:34:47;;;;;;;11.27;10.47;;;20.30;62.50;;;;;;5032365;28;20449;-53
2022/12/02 06:37:18;;;;;;;13.97;13.03;;;20.30;63.00;;;;;;5032890;28;20445;-53
2022/12/02 06:39:48;;;;;;;13.37;12.27;;;20.30;63.10;;;;;;5032472;28;20484;-51
2022/12/02 06:42:21;;;;;;;13.87;12.70;;;20.30;63.10;;;;;;5032552;28;20481;-52
2022/12/02 06:45:07;;;;;;;12.30;11.50;;;20.30;63.00;;;;;;5032451;28;20445;-54
2022/12/02 06:47:50;;;;;;;12.53;11.27;;;20.30;62.90;;;;;;5032700;28;20449;-51
2022/12/02 06:50:30;;;;;;;12.30;11.40;;;20.30;62.80;;;;;;5032404;28;20990;-52
2022/12/02 06:53:12;;;;;;;12.70;11.80;;;20.30;62.60;;;;;;5032676;28;20850;-52
2022/12/02 06:55:40;;;;;;;12.93;11.67;;;20.30;62.50;;;;;;5032429;28;20459;-51
2022/12/02 06:58:22;;;;;;;12.40;11.70;;;20.30;62.50;;;;;;5032405;28;20468;-52
2022/12/02 07:00:49;;;;;;;12.20;11.00;;;20.30;62.40;;;;;;5032116;28;20441;-52
2022/12/02 07:03:27;;;;;;;12.10;11.10;;;20.30;62.30;;;;;;5032231;28;20544;-51
2022/12/02 07:05:55;;;;;;;11.03;10.33;;;20.30;62.20;;;;;;5032304;28;20445;-53
2022/12/02 07:08:25;;;;;;;11.53;10.70;;;20.30;62.10;;;;;;5032089;28;20497;-54
2022/12/02 07:10:53;;;;;;;11.70;11.00;;;20.30;62.00;;;;;;5031975;28;20883;-52
2022/12/02 07:13:20;;;;;;;12.20;11.13;;;20.30;62.00;;;;;;5032308;28;20472;-51
2022/12/02 07:15:47;;;;;;;12.43;11.50;;;20.30;61.90;;;;;;5032069;28;20492;-51
2022/12/02 07:18:16;;;;;;;12.63;11.73;;;20.30;61.80;;;;;;5032146;28;20916;-52
2022/12/02 07:20:45;;;;;;;12.80;11.90;;;20.30;61.80;;;;;;5031779;28;20461;-54
2022/12/02 07:23:18;;;;;;;11.50;10.60;;;20.30;61.80;;;;;;5031941;28;20572;-56
2022/12/02 07:25:49;;;;;;;11.27;10.53;;;20.30;61.70;;;;;;5031885;28;20448;-52
2022/12/02 07:28:28;;;;;;;13.13;12.07;;;20.30;61.70;;;;;;5032246;28;20465;-53
2022/12/02 07:30:58;;;;;;;13.80;12.90;;;20.30;61.60;;;;;;5031749;28;20807;-51
2022/12/02 07:33:25;;;;;;;11.63;10.93;;;20.30;61.60;;;;;;5031880;28;20532;-53
2022/12/02 07:35:52;;;;;;;11.33;10.47;;;20.30;61.50;;;;;;5031679;28;20441;-55
2022/12/02 07:38:19;;;;;;;12.10;11.30;;;20.40;61.60;;;;;;5032017;28;20512;-53
2022/12/02 07:40:46;;;;;;;10.97;10.30;;;20.30;62.20;;;;;;5031438;28;20441;-53
2022/12/02 07:43:12;;;;;;;11.50;10.80;;;20.30;61.30;;;;;;5031676;28;20897;-52
2022/12/02 07:45:41;;;;;;;12.37;11.47;;;20.30;61.30;;;;;;5031664;28;20447;-53
2022/12/02 07:48:08;;;;;;;11.30;10.50;;;20.30;61.20;;;;;;5031877;28;20567;-52
2022/12/02 07:50:34;;;;;;;10.80;10.13;;;20.40;61.30;;;;;;5031430;28;20535;-54
2022/12/02 07:53:01;;;;;;;11.63;10.83;;;20.40;61.20;;;;;;5031728;28;20437;-55
2022/12/02 07:55:28;;;;;;;12.60;11.70;;;20.40;62.00;;;;;;5031449;28;20449;-51
2022/12/02 07:57:55;;;;;;;11.43;10.73;;;20.30;61.70;;;;;;5031516;28;20447;-54
2022/12/02 08:00:24;;;;;;;12.13;11.40;;;20.40;61.00;;;;;;5031339;28;20433;-52
2022/12/02 08:02:54;;;;;;;12.43;11.53;;;20.40;60.90;;;;;;5031337;28;20829;-52
2022/12/02 08:05:21;;;;;;;11.20;10.50;;;20.30;60.70;;;;;;5031387;28;20455;-53
2022/12/02 08:07:48;;;;;;;12.43;11.63;;;20.30;60.70;;;;;;5031406;28;20468;-53
2022/12/02 08:10:15;;;;;;;12.07;11.23;;;20.30;60.70;;;;;;5031255;28;20948;-52
2022/12/02 08:12:42;;;;;;;12.30;11.60;;;20.40;60.90;;;;;;5031460;28;21153;-53
2022/12/02 08:15:11;;;;;;;12.17;11.47;;;20.30;60.70;;;;;;5031226;28;20871;-52
2022/12/02 08:17:38;;;;;;;11.73;10.93;;;20.30;60.80;;;;;;5031407;28;20886;-50
2022/12/02 08:20:09;;;;;;;12.23;11.30;;;20.30;60.80;;;;;;5031081;28;20480;-52
2022/12/02 08:22:36;;;;;;;11.93;11.33;;;20.30;60.70;;;;;;5031331;28;20476;-50
2022/12/02 08:25:04;;;;;;;12.87;12.07;;;20.30;60.70;;;;;;5031072;28;20528;-53
2022/12/02 08:27:31;;;;;;;14.23;13.20;;;20.30;60.70;;;;;;5031324;28;20881;-52
2022/12/02 08:29:57;;;;;;;13.03;12.07;;;20.30;60.60;;;;;;5030960;28;20467;-52
2022/12/02 08:32:24;;;;;;;12.30;11.53;;;20.30;60.60;;;;;;5031223;28;20894;-53
2022/12/02 08:34:51;;;;;;;11.73;11.03;;;20.30;60.50;;;;;;5031340;28;20473;-52
2022/12/02 08:37:19;;;;;;;12.70;11.90;;;20.30;60.50;;;;;;5031159;28;21011;-52
2022/12/02 08:39:46;;;;;;;13.90;12.93;;;20.30;60.50;;;;;;5030665;28;21039;-53
2022/12/02 08:42:13;;;;;;;12.10;11.27;;;20.30;60.50;;;;;;5031011;28;20481;-51
2022/12/02 08:44:40;;;;;;;11.97;11.30;;;20.30;60.50;;;;;;5031139;28;20453;-51
2022/12/02 08:47:07;;;;;;;13.17;12.27;;;20.20;61.10;;;;;;5031053;28;20485;-55
2022/12/02 08:49:34;;;;;;;12.17;11.30;;;20.30;60.50;;;;;;5031762;28;20547;-54
2022/12/02 08:52:01;;;;;;;13.50;12.70;;;20.30;60.50;;;;;;5034765;28;20834;-52
2022/12/02 08:54:29;;;;;;;12.40;11.50;;;20.30;60.40;;;;;;5034707;28;20861;-52
2022/12/02 08:56:59;;;;;;;13.30;12.27;;;20.30;60.40;;;;;;5034804;28;20477;-52
2022/12/02 08:59:26;;;;;;;13.23;12.03;;;20.30;60.40;;;;;;5034513;28;20473;-54
2022/12/02 09:01:53;;;;;;;11.03;10.43;;;20.40;60.40;;;;;;5034525;28;20449;-55
2022/12/02 09:04:20;;;;;;;10.80;10.20;;;20.40;60.40;;;;;;5034580;28;20937;-55
2022/12/02 09:06:46;;;;;;;12.07;11.27;;;20.40;60.30;;;;;;5034509;28;20506;-55
2022/12/02 09:09:13;;;;;;;11.47;10.67;;;20.40;60.20;;;;;;5034231;28;20473;-53
2022/12/02 09:11:41;;;;;;;11.70;11.00;;;20.40;60.10;;;;;;5034388;28;20455;-51
2022/12/02 09:14:08;;;;;;;12.57;11.67;;;20.40;60.10;;;;;;5034307;28;20537;-55
2022/12/02 09:16:35;;;;;;;12.87;12.03;;;20.40;60.80;;;;;;5034467;28;20441;-53
2022/12/02 09:19:02;;;;;;;11.43;10.80;;;20.40;60.00;;;;;;5034071;28;20469;-53
2022/12/02 09:21:29;;;;;;;12.17;11.37;;;20.40;59.90;;;;;;5034194;28;20536;-53
2022/12/02 09:23:56;;;;;;;13.07;12.27;;;20.40;59.90;;;;;;5033945;28;20483;-54
2022/12/02 09:26:22;;;;;;;14.43;13.43;;;20.40;59.90;;;;;;5034223;28;20487;-53
2022/12/02 09:28:51;;;;;;;13.43;12.67;;;20.40;59.80;;;;;;5033879;28;20465;-51
2022/12/02 09:31:17;;;;;;;12.60;11.70;;;20.40;59.80;;;;;;5034024;28;20536;-52
2022/12/02 09:33:44;;;;;;;11.97;11.17;;;20.40;59.80;;;;;;5034069;28;20452;-51
2022/12/02 09:36:11;;;;;;;11.87;11.13;;;20.40;59.80;;;;;;5034002;28;20524;-51
2022/12/02 09:38:38;;;;;;;11.90;11.00;;;20.40;59.80;;;;;;5033728;28;21059;-51
2022/12/02 09:41:05;;;;;;;12.27;11.57;;;20.40;59.70;;;;;;5033657;28;20532;-52
2022/12/02 09:43:33;;;;;;;11.17;10.47;;;20.40;59.70;;;;;;5033811;28;20491;-51
2022/12/02 09:46:03;;;;;;;13.30;12.50;;;20.40;59.70;;;;;;5033869;28;20477;-50
2022/12/02 09:48:31;;;;;;;11.93;11.13;;;20.40;59.80;;;;;;5033695;28;20929;-50
2022/12/02 09:50:59;;;;;;;11.83;11.23;;;20.40;59.70;;;;;;5033506;28;20456;-50
2022/12/02 09:53:31;;;;;;;11.90;11.10;;;20.30;59.70;;;;;;5033683;28;20929;-51
2022/12/02 09:55:57;;;;;;;12.37;11.57;;;20.30;59.60;;;;;;5033618;28;20955;-52
2022/12/02 09:58:26;;;;;;;11.83;11.13;;;20.30;59.60;;;;;;5033475;28;20547;-51
2022/12/02 10:00:53;;;;;;;12.47;11.77;;;20.30;59.60;;;;;;5032320;28;20613;-51
2022/12/02 10:03:25;;;;;;;13.10;12.30;;;20.30;59.60;;;;;;5033334;28;20543;-51
2022/12/02 10:05:52;;;;;;;12.87;11.70;;;20.30;59.60;;;;;;5033448;28;20847;-51
2022/12/02 10:08:23;;;;;;;11.90;11.20;;;20.30;59.70;;;;;;5033319;28;20464;-50
2022/12/02 10:10:51;;;;;;;11.40;10.70;;;20.30;59.60;;;;;;5033118;28;20445;-50
2022/12/02 10:13:20;;;;;;;11.93;11.20;;;20.30;59.60;;;;;;5033264;28;20441;-50
2022/12/02 10:15:47;;;;;;;12.03;11.13;;;20.30;60.10;;;;;;5033204;28;21046;-52
2022/12/02 10:18:17;;;;;;;13.03;12.30;;;20.30;59.60;;;;;;5033066;28;20500;-50
2022/12/02 10:20:46;;;;;;;12.60;11.70;;;20.30;59.60;;;;;;5032869;28;20445;-52
2022/12/02 10:23:16;;;;;;;14.37;13.30;;;20.30;59.60;;;;;;5032982;28;20481;-50
2022/12/02 10:25:45;;;;;;;11.60;10.90;;;20.20;60.10;;;;;;5033021;28;20528;-50
2022/12/02 10:28:24;;;;;;;11.83;11.00;;;20.20;59.50;;;;;;5033014;28;20943;-51
2022/12/02 10:30:54;;;;;;;11.90;11.10;;;20.30;59.60;;;;;;5032743;28;20539;-51
2022/12/02 10:33:24;;;;;;;12.10;11.20;;;20.30;59.60;;;;;;5032979;28;21014;-52
2022/12/02 10:35:54;;;;;;;11.63;10.83;;;20.30;59.60;;;;;;5032826;28;20455;-51
2022/12/02 10:38:33;;;;;;;11.23;10.63;;;20.30;59.60;;;;;;5032567;28;20585;-51
2022/12/02 10:41:23;;;;;;;11.77;11.17;;;20.30;59.60;;;;;;5032879;28;20528;-51
2022/12/02 10:44:12;;;;;;;11.90;11.00;;;20.30;59.60;;;;;;5032713;28;20516;-50
2022/12/02 10:46:39;;;;;;;12.70;11.90;;;20.30;59.60;;;;;;5032699;28;20476;-51
2022/12/02 10:49:27;;;;;;;11.77;10.97;;;20.40;59.60;;;;;;5032571;28;20639;-53
2022/12/02 10:51:59;;;;;;;11.63;10.83;;;20.40;59.60;;;;;;5032455;28;20559;-51
2022/12/02 10:54:28;;;;;;;11.27;10.50;;;20.40;59.50;;;;;;5032570;28;20444;-51
2022/12/02 10:56:56;;;;;;;11.93;11.03;;;20.40;59.50;;;;;;5032428;28;20491;-51
2022/12/02 10:59:24;;;;;;;12.80;12.00;;;20.40;60.00;;;;;;5032095;28;21018;-51
2022/12/02 11:01:51;;;;;;;12.20;11.50;;;20.40;59.40;;;;;;5032343;28;20440;-51
2022/12/02 11:04:18;;;;;;;11.90;11.10;;;20.40;59.40;;;;;;5032105;28;20535;-51
2022/12/02 11:06:46;;;;;;;11.70;10.93;;;20.40;59.90;;;;;;5032256;28;20507;-51
2022/12/02 11:09:17;;;;;;;11.97;11.27;;;20.40;59.30;;;;;;5032046;28;20481;-50
2022/12/02 11:11:44;;;;;;;11.53;10.80;;;20.40;59.30;;;;;;5031929;28;21010;-53
2022/12/02 11:14:13;;;;;;;12.27;11.53;;;20.40;59.30;;;;;;5031827;28;20469;-50
2022/12/02 11:17:05;;;;;;;11.80;11.10;;;20.40;59.30;;;;;;5032090;28;20544;-50
2022/12/02 11:19:46;;;;;;;11.43;10.83;;;20.40;59.30;;;;;;5031781;28;21010;-52
2022/12/02 11:22:50;;;;;;;11.53;10.93;;;20.40;59.20;;;;;;5032090;28;20515;-51
2022/12/02 11:25:53;;;;;;;11.87;11.17;;;20.40;59.20;;;;;;5000473;28;21003;-51
2022/12/02 11:28:49;;;;;;;10.80;10.20;;;20.40;59.20;;;;;;5009263;28;20501;-53
2022/12/02 11:31:26;;;;;;;12.10;11.40;;;20.40;59.20;;;;;;5031803;28;20447;-51
2022/12/02 11:34:26;;;;;;;12.27;11.60;;;20.30;59.10;;;;;;5031905;28;20523;-52
2022/12/02 11:37:33;;;;;;;11.70;10.90;;;20.30;59.20;;;;;;5031818;28;20524;-52
2022/12/02 11:40:02;;;;;;;11.77;11.07;;;20.30;59.20;;;;;;5031358;28;20473;-51
2022/12/02 11:42:30;;;;;;;11.63;11.00;;;20.30;59.10;;;;;;5031603;28;20468;-52
2022/12/02 11:45:33;;;;;;;11.37;10.57;;;20.30;59.10;;;;;;5031662;28;20568;-52
2022/12/02 11:48:01;;;;;;;12.07;11.27;;;20.30;59.20;;;;;;5031499;28;20475;-51
2022/12/02 11:50:34;;;;;;;11.10;10.40;;;20.30;59.20;;;;;;5031396;28;20523;-52
2022/12/02 11:53:04;;;;;;;12.10;11.50;;;20.30;59.20;;;;;;5031634;28;20452;-52
2022/12/02 11:55:34;;;;;;;11.60;11.00;;;20.30;59.20;;;;;;5031446;28;20944;-54
2022/12/02 11:58:02;;;;;;;12.43;11.70;;;20.30;59.20;;;;;;5031435;28;20549;-51
2022/12/02 12:00:32;;;;;;;11.67;11.03;;;20.20;59.10;;;;;;5031305;28;20448;-52
2022/12/02 12:03:15;;;;;;;12.03;11.30;;;20.30;59.20;;;;;;5031506;28;20476;-52
2022/12/02 12:05:44;;;;;;;13.77;13.07;;;20.20;59.10;;;;;;5031568;28;20528;-54
2022/12/02 12:08:25;;;;;;;11.20;10.60;;;20.20;59.60;;;;;;5031231;28;20551;-52
2022/12/02 12:11:17;;;;;;;11.50;10.70;;;20.20;59.10;;;;;;5031286;28;20675;-54
2022/12/02 12:14:02;;;;;;;11.07;10.43;;;20.20;59.10;;;;;;5031496;28;20472;-51
2022/12/02 12:16:32;;;;;;;11.70;11.00;;;20.20;59.10;;;;;;5031382;28;20488;-51
2022/12/02 12:18:59;;;;;;;11.43;10.83;;;20.20;59.20;;;;;;5031209;28;20835;-51
2022/12/02 12:21:44;;;;;;;11.77;11.07;;;20.20;59.10;;;;;;5031280;28;20884;-51
2022/12/02 12:24:31;;;;;;;11.10;10.47;;;20.20;59.10;;;;;;5031524;28;20488;-50
2022/12/02 12:27:09;;;;;;;11.77;11.07;;;20.20;59.10;;;;;;5035433;28;20525;-51
2022/12/02 12:29:39;;;;;;;10.73;10.23;;;20.30;59.20;;;;;;5035075;28;20546;-50
2022/12/02 12:32:08;;;;;;;12.47;11.70;;;20.30;59.20;;;;;;5035102;28;20447;-50
2022/12/02 12:34:35;;;;;;;11.23;10.63;;;20.30;59.70;;;;;;5034997;28;20976;-53
2022/12/02 12:37:03;;;;;;;11.20;10.60;;;20.30;59.20;;;;;;5035009;28;20447;-52
2022/12/02 12:39:29;;;;;;;10.87;9.97;;;20.30;59.10;;;;;;5034651;28;20488;-51
2022/12/02 12:41:56;;;;;;;11.67;10.87;;;20.40;59.10;;;;;;5035075;28;20835;-51
2022/12/02 12:44:23;;;;;;;11.70;11.10;;;20.40;59.10;;;;;;5034929;28;20476;-50